Time;durP1;ratioP1;P1;durP2;ratioP2;P2;SDS_P1;SDS_P2;PMS_P1;PMS_P2;Temp;Humidity;BMP_temperature;BMP_pressure;BME280_temperature;BME280_humidity;BME280_pressure;Samples;Min_cycle;Max_cycle;Signal;HPM_P1;HPM_P2
2023/09/20 00:00:55;;;;;;;14.70;4.10;;;;;;;;;;4990126;28;20041;-71
2023/09/20 00:03:21;;;;;;;22.80;5.40;;;;;;;;;;4994100;28;20041;-72
2023/09/20 00:05:47;;;;;;;14.05;4.15;;;;;;;;;;4981304;28;20121;-71
2023/09/20 00:08:14;;;;;;;15.77;3.90;;;;;;;;;;4991311;28;20104;-71
2023/09/20 00:10:40;;;;;;;12.07;3.42;;;;;;;;;;4989224;28;20095;-72
2023/09/20 00:13:09;;;;;;;11.93;3.53;;;;;;;;;;4994187;28;20230;-73
2023/09/20 00:15:36;;;;;;;12.98;3.85;;;;;;;;;;4997925;28;20033;-71
2023/09/20 00:18:02;;;;;;;14.05;4.32;;;;;;;;;;4991767;28;20122;-70
2023/09/20 00:20:28;;;;;;;10.98;3.95;;;;;;;;;;4963875;28;20726;-70
2023/09/20 00:22:54;;;;;;;13.43;4.05;;;;;;;;;;4993560;28;20050;-71
2023/09/20 00:25:21;;;;;;;15.95;3.85;;;;;;;;;;4994631;28;20049;-72
2023/09/20 00:27:47;;;;;;;19.80;4.30;;;;;;;;;;4981202;28;20046;-72
2023/09/20 00:30:17;;;;;;;16.63;3.65;;;;;;;;;;4967609;28;20033;-71
2023/09/20 00:32:44;;;;;;;17.30;4.23;;;;;;;;;;4993919;28;20064;-73
2023/09/20 00:35:11;;;;;;;12.25;3.25;;;;;;;;;;4995205;28;20292;-73
2023/09/20 00:37:47;;;;;;;15.52;4.13;;;;;;;;;;4996493;28;20057;-72
2023/09/20 00:40:18;;;;;;;17.70;3.92;;;;;;;;;;4992890;28;20380;-73
2023/09/20 00:42:51;;;;;;;12.30;4.05;;;;;;;;;;4983688;28;20145;-73
2023/09/20 00:45:18;;;;;;;18.33;4.53;;;;;;;;;;4984294;28;20351;-73
2023/09/20 00:47:46;;;;;;;15.23;4.18;;;;;;;;;;4994204;28;20757;-72
2023/09/20 00:50:12;;;;;;;12.23;3.95;;;;;;;;;;4993450;28;20117;-71
2023/09/20 00:52:42;;;;;;;19.67;4.32;;;;;;;;;;4985754;28;20036;-72
2023/09/20 00:55:29;;;;;;;13.68;4.05;;;;;;;;;;4970106;28;20120;-72
2023/09/20 00:57:59;;;;;;;17.42;4.30;;;;;;;;;;4967461;28;20026;-72
2023/09/20 01:00:28;;;;;;;14.63;4.73;;;;;;;;;;4994301;28;20054;-72
2023/09/20 01:02:55;;;;;;;13.80;4.22;;;;;;;;;;4984362;28;20030;-72
2023/09/20 01:05:22;;;;;;;19.67;4.82;;;;;;;;;;4976154;28;20030;-72
2023/09/20 01:07:52;;;;;;;13.98;4.35;;;;;;;;;;4987507;28;20600;-72
2023/09/20 01:10:36;;;;;;;19.80;4.67;;;;;;;;;;4986972;28;20023;-72
2023/09/20 01:13:04;;;;;;;14.85;5.85;;;;;;;;;;4983484;28;20302;-71
2023/09/20 01:15:32;;;;;;;14.45;4.70;;;;;;;;;;4992325;28;20042;-71
2023/09/20 01:17:59;;;;;;;17.35;5.00;;;;;;;;;;4995066;28;20030;-72
2023/09/20 01:20:25;;;;;;;16.02;4.78;;;;;;;;;;4998477;28;20108;-71
2023/09/20 01:22:56;;;;;;;18.58;4.75;;;;;;;;;;4992410;28;20057;-72
2023/09/20 01:25:24;;;;;;;15.80;4.80;;;;;;;;;;4990702;28;20034;-71
2023/09/20 01:27:55;;;;;;;13.15;4.80;;;;;;;;;;4981644;28;20102;-71
2023/09/20 01:30:28;;;;;;;13.23;4.53;;;;;;;;;;4995565;28;20100;-71
2023/09/20 01:32:54;;;;;;;18.17;5.15;;;;;;;;;;4979389;28;20124;-71
2023/09/20 01:35:21;;;;;;;18.15;4.82;;;;;;;;;;4985720;28;20058;-71
2023/09/20 01:37:49;;;;;;;19.80;5.40;;;;;;;;;;4992315;28;20117;-72
2023/09/20 01:40:16;;;;;;;17.48;5.20;;;;;;;;;;4976643;28;20106;-72
2023/09/20 01:42:43;;;;;;;17.48;5.20;;;;;;;;;;4995325;28;20052;-73
2023/09/20 01:45:14;;;;;;;17.90;5.47;;;;;;;;;;4994871;28;20165;-72
2023/09/20 01:47:42;;;;;;;15.55;5.10;;;;;;;;;;4993456;28;20031;-73
2023/09/20 01:50:10;;;;;;;19.90;5.13;;;;;;;;;;4978024;28;20040;-72
2023/09/20 01:52:37;;;;;;;21.45;5.18;;;;;;;;;;4993386;28;20617;-73
2023/09/20 01:55:07;;;;;;;20.10;5.10;;;;;;;;;;4981705;28;20030;-71
2023/09/20 01:57:34;;;;;;;18.40;4.53;;;;;;;;;;4995725;28;20038;-74
2023/09/20 02:00:00;;;;;;;17.98;5.05;;;;;;;;;;4982996;28;20061;-72
2023/09/20 02:02:26;;;;;;;16.60;5.40;;;;;;;;;;4984224;28;20083;-70
2023/09/20 02:04:52;;;;;;;13.18;4.20;;;;;;;;;;4985365;28;20116;-72
2023/09/20 02:07:22;;;;;;;10.90;3.90;;;;;;;;;;4991424;28;20030;-71
2023/09/20 02:09:48;;;;;;;15.20;4.50;;;;;;;;;;4981847;28;20033;-72
2023/09/20 02:12:15;;;;;;;20.13;5.07;;;;;;;;;;4972831;28;20038;-73
2023/09/20 02:14:41;;;;;;;14.90;3.90;;;;;;;;;;4993314;28;20027;-73
2023/09/20 02:17:08;;;;;;;16.05;4.70;;;;;;;;;;4988350;28;20033;-72
2023/09/20 02:19:34;;;;;;;19.33;4.95;;;;;;;;;;4995393;28;20113;-72
2023/09/20 02:22:01;;;;;;;13.38;4.38;;;;;;;;;;4992173;28;20069;-72
2023/09/20 02:24:29;;;;;;;15.40;4.78;;;;;;;;;;4994605;28;20026;-72
2023/09/20 02:26:55;;;;;;;12.45;4.60;;;;;;;;;;4994246;28;20169;-72
2023/09/20 02:29:23;;;;;;;18.55;5.97;;;;;;;;;;5002312;28;20045;-73
2023/09/20 02:31:49;;;;;;;16.52;4.72;;;;;;;;;;4979972;28;20077;-72
2023/09/20 02:34:15;;;;;;;18.52;4.88;;;;;;;;;;4992125;28;20037;-72
2023/09/20 02:36:41;;;;;;;20.52;4.55;;;;;;;;;;4992993;28;20053;-72
2023/09/20 02:39:09;;;;;;;19.00;4.82;;;;;;;;;;4979865;28;20034;-72
2023/09/20 02:41:35;;;;;;;20.80;5.22;;;;;;;;;;4991923;28;20030;-72
2023/09/20 02:44:02;;;;;;;18.88;4.88;;;;;;;;;;4953124;28;20165;-72
2023/09/20 02:46:28;;;;;;;13.75;4.75;;;;;;;;;;4979288;28;20053;-72
2023/09/20 02:48:54;;;;;;;16.58;4.82;;;;;;;;;;4981497;28;20487;-71
2023/09/20 02:51:23;;;;;;;18.25;4.88;;;;;;;;;;4992798;28;20778;-71
2023/09/20 02:53:49;;;;;;;14.52;4.35;;;;;;;;;;4997148;28;20030;-70
2023/09/20 02:56:17;;;;;;;13.38;4.93;;;;;;;;;;4994998;28;20117;-71
2023/09/20 02:58:48;;;;;;;13.50;4.70;;;;;;;;;;4991145;28;20105;-72
2023/09/20 03:01:18;;;;;;;17.38;4.75;;;;;;;;;;4979972;28;20350;-71
2023/09/20 03:03:44;;;;;;;11.45;4.35;;;;;;;;;;4981914;28;20026;-72
2023/09/20 03:06:11;;;;;;;20.67;4.82;;;;;;;;;;4983586;28;20034;-72
2023/09/20 03:08:43;;;;;;;19.27;5.10;;;;;;;;;;4986351;28;20038;-72
2023/09/20 03:11:20;;;;;;;15.15;4.97;;;;;;;;;;4981194;28;20014;-72
2023/09/20 03:13:46;;;;;;;16.13;5.80;;;;;;;;;;4979518;28;20026;-72
2023/09/20 03:16:19;;;;;;;16.25;4.70;;;;;;;;;;4997104;28;20037;-72
2023/09/20 03:18:46;;;;;;;15.57;4.90;;;;;;;;;;4976793;28;20042;-72
2023/09/20 03:21:12;;;;;;;17.75;4.65;;;;;;;;;;4996938;28;20065;-72
2023/09/20 03:23:39;;;;;;;23.13;5.10;;;;;;;;;;4980817;28;20037;-72
2023/09/20 03:26:08;;;;;;;12.95;5.07;;;;;;;;;;4972853;28;20049;-72
2023/09/20 03:28:35;;;;;;;17.45;4.72;;;;;;;;;;4991929;28;20100;-72
2023/09/20 03:31:05;;;;;;;14.13;4.90;;;;;;;;;;4980058;28;20030;-72
2023/09/20 03:33:32;;;;;;;22.08;6.03;;;;;;;;;;4983992;28;20495;-72
2023/09/20 03:36:04;;;;;;;13.88;4.47;;;;;;;;;;4991270;28;20424;-73
2023/09/20 03:38:32;;;;;;;16.20;5.15;;;;;;;;;;4988604;28;20110;-72
2023/09/20 03:40:58;;;;;;;12.48;4.25;;;;;;;;;;5000870;28;20152;-72
2023/09/20 03:43:27;;;;;;;13.63;4.75;;;;;;;;;;4984134;28;20341;-71
2023/09/20 03:45:54;;;;;;;15.45;4.70;;;;;;;;;;4971219;28;20038;-71
2023/09/20 03:48:21;;;;;;;15.63;4.47;;;;;;;;;;4987598;28;20041;-72
2023/09/20 03:50:49;;;;;;;12.95;4.40;;;;;;;;;;4997045;28;20034;-71
2023/09/20 03:53:16;;;;;;;16.67;5.10;;;;;;;;;;4985966;28;20037;-72
2023/09/20 03:55:44;;;;;;;16.38;5.30;;;;;;;;;;4996265;28;20403;-73
2023/09/20 03:58:12;;;;;;;14.23;4.70;;;;;;;;;;4970073;28;20120;-71
2023/09/20 04:00:38;;;;;;;11.18;4.07;;;;;;;;;;4971435;28;20124;-71
2023/09/20 04:03:13;;;;;;;17.90;4.93;;;;;;;;;;5001700;28;20040;-72
2023/09/20 04:05:39;;;;;;;14.93;4.47;;;;;;;;;;4999970;28;20029;-72
2023/09/20 04:08:06;;;;;;;12.93;5.88;;;;;;;;;;4969339;28;20034;-72
2023/09/20 04:10:34;;;;;;;11.50;4.13;;;;;;;;;;4998319;28;20033;-72
2023/09/20 04:13:00;;;;;;;13.32;4.07;;;;;;;;;;4998210;28;20021;-72
2023/09/20 04:15:26;;;;;;;11.77;3.95;;;;;;;;;;4999025;28;20039;-72
2023/09/20 04:17:52;;;;;;;12.88;3.90;;;;;;;;;;4996876;28;20107;-73
2023/09/20 04:20:20;;;;;;;13.05;4.47;;;;;;;;;;4985932;28;20029;-72
2023/09/20 04:22:49;;;;;;;13.70;4.43;;;;;;;;;;4973602;28;20128;-74
2023/09/20 04:25:16;;;;;;;11.65;3.85;;;;;;;;;;4995765;28;20041;-72
2023/09/20 04:27:43;;;;;;;11.95;4.20;;;;;;;;;;4986509;28;20045;-72
2023/09/20 04:30:13;;;;;;;15.48;3.67;;;;;;;;;;4987053;28;20018;-71
2023/09/20 04:32:42;;;;;;;16.58;4.60;;;;;;;;;;4988479;28;20037;-72
2023/09/20 04:35:15;;;;;;;15.23;4.57;;;;;;;;;;5000981;28;20034;-72
2023/09/20 04:37:41;;;;;;;14.90;4.30;;;;;;;;;;4988001;28;20030;-72
2023/09/20 04:40:09;;;;;;;10.93;4.07;;;;;;;;;;4996368;28;20510;-73
2023/09/20 04:42:37;;;;;;;15.20;4.60;;;;;;;;;;4986722;28;20113;-72
2023/09/20 04:45:12;;;;;;;15.77;4.32;;;;;;;;;;4988439;28;20455;-72
2023/09/20 04:47:39;;;;;;;14.90;3.92;;;;;;;;;;4985224;28;20038;-73
2023/09/20 04:50:05;;;;;;;18.08;4.18;;;;;;;;;;4986878;28;20510;-72
2023/09/20 04:52:33;;;;;;;16.25;4.65;;;;;;;;;;4970261;28;20034;-72
2023/09/20 04:54:59;;;;;;;12.63;5.05;;;;;;;;;;4987737;28;20085;-72
2023/09/20 04:57:25;;;;;;;16.77;4.13;;;;;;;;;;4976941;28;20031;-72
2023/09/20 04:59:52;;;;;;;16.52;4.30;;;;;;;;;;4985592;28;20022;-72
2023/09/20 05:02:18;;;;;;;11.20;3.92;;;;;;;;;;4995474;28;20954;-72
2023/09/20 05:04:45;;;;;;;13.35;4.22;;;;;;;;;;4980402;28;20161;-73
2023/09/20 05:07:11;;;;;;;12.98;4.00;;;;;;;;;;4978477;28;20148;-72
2023/09/20 05:09:38;;;;;;;14.85;4.63;;;;;;;;;;4986256;28;20029;-72
2023/09/20 05:12:05;;;;;;;17.95;4.25;;;;;;;;;;4973591;28;20045;-72
2023/09/20 05:14:31;;;;;;;15.88;4.53;;;;;;;;;;4980088;28;20116;-72
2023/09/20 05:16:57;;;;;;;20.17;4.20;;;;;;;;;;4978643;28;20034;-74
2023/09/20 05:19:25;;;;;;;12.70;3.97;;;;;;;;;;4969701;28;20049;-72
2023/09/20 05:21:51;;;;;;;13.88;4.30;;;;;;;;;;5004358;28;20058;-72
2023/09/20 05:24:18;;;;;;;12.25;4.05;;;;;;;;;;4973426;28;20042;-72
2023/09/20 05:26:44;;;;;;;14.23;4.70;;;;;;;;;;4984349;28;20128;-72
2023/09/20 05:29:11;;;;;;;12.82;3.92;;;;;;;;;;4998995;28;20036;-72
2023/09/20 05:31:37;;;;;;;14.40;3.72;;;;;;;;;;4994584;28;20039;-73
2023/09/20 05:34:05;;;;;;;17.02;3.85;;;;;;;;;;4970003;28;20061;-71
2023/09/20 05:36:32;;;;;;;12.90;3.97;;;;;;;;;;4997872;28;20039;-72
2023/09/20 05:38:58;;;;;;;17.63;4.38;;;;;;;;;;4980545;28;20033;-73
2023/09/20 05:41:25;;;;;;;17.60;4.57;;;;;;;;;;4981446;28;20049;-72
2023/09/20 05:43:51;;;;;;;16.58;3.85;;;;;;;;;;4995809;28;20052;-72
2023/09/20 05:46:18;;;;;;;18.80;5.07;;;;;;;;;;4979760;28;20058;-72
2023/09/20 05:48:46;;;;;;;15.10;4.53;;;;;;;;;;4998024;28;20066;-73
2023/09/20 05:51:14;;;;;;;15.80;4.30;;;;;;;;;;4975970;28;20396;-72
2023/09/20 05:53:44;;;;;;;11.15;4.40;;;;;;;;;;4999800;28;20033;-73
2023/09/20 05:56:14;;;;;;;12.88;4.35;;;;;;;;;;4998921;28;20022;-73
2023/09/20 05:58:41;;;;;;;16.80;4.30;;;;;;;;;;4984679;28;20447;-74
2023/09/20 06:01:10;;;;;;;11.00;4.30;;;;;;;;;;4997423;28;20049;-73
2023/09/20 06:03:36;;;;;;;11.40;4.35;;;;;;;;;;5000112;28;20041;-73
2023/09/20 06:06:09;;;;;;;17.63;4.47;;;;;;;;;;5003569;28;20026;-73
2023/09/20 06:08:36;;;;;;;13.18;4.68;;;;;;;;;;5002204;28;20049;-73
2023/09/20 06:11:04;;;;;;;11.98;4.35;;;;;;;;;;4986202;28;20038;-72
2023/09/20 06:13:32;;;;;;;18.85;4.78;;;;;;;;;;4992013;28;20334;-71
2023/09/20 06:15:58;;;;;;;12.45;4.45;;;;;;;;;;4982857;28;20034;-72
2023/09/20 06:18:25;;;;;;;14.32;4.70;;;;;;;;;;4996932;28;20129;-72
2023/09/20 06:20:51;;;;;;;16.30;4.30;;;;;;;;;;4999542;28;20034;-73
2023/09/20 06:23:18;;;;;;;14.32;4.68;;;;;;;;;;4992716;28;20622;-71
2023/09/20 06:25:47;;;;;;;11.88;4.43;;;;;;;;;;4993317;28;20039;-72
2023/09/20 06:28:15;;;;;;;11.48;4.13;;;;;;;;;;4997717;28;20137;-72
2023/09/20 06:30:41;;;;;;;14.55;3.92;;;;;;;;;;4981616;28;20060;-72
2023/09/20 06:33:08;;;;;;;16.27;4.07;;;;;;;;;;4997711;28;20045;-72
2023/09/20 06:35:39;;;;;;;12.15;4.35;;;;;;;;;;4999325;28;20674;-72
2023/09/20 06:38:05;;;;;;;12.75;4.32;;;;;;;;;;4980372;28;20579;-72
2023/09/20 06:40:38;;;;;;;11.00;4.50;;;;;;;;;;4975481;28;20030;-71
2023/09/20 06:43:06;;;;;;;8.90;4.00;;;;;;;;;;4998397;28;20116;-72
2023/09/20 06:45:32;;;;;;;11.50;4.40;;;;;;;;;;4994284;28;20109;-73
2023/09/20 06:47:59;;;;;;;14.85;4.43;;;;;;;;;;4977903;28;20021;-71
2023/09/20 06:50:25;;;;;;;13.43;4.15;;;;;;;;;;4994618;28;20502;-72
2023/09/20 06:52:53;;;;;;;15.23;3.72;;;;;;;;;;4996551;28;20057;-72
2023/09/20 06:55:19;;;;;;;10.85;3.80;;;;;;;;;;4994630;28;20029;-72
2023/09/20 06:57:49;;;;;;;12.05;4.05;;;;;;;;;;4994663;28;20136;-72
2023/09/20 07:00:24;;;;;;;13.27;4.15;;;;;;;;;;4995455;28;20026;-72
2023/09/20 07:02:51;;;;;;;14.23;4.20;;;;;;;;;;4965711;28;20050;-73
2023/09/20 07:05:18;;;;;;;10.77;3.97;;;;;;;;;;4992974;28;20122;-73
2023/09/20 07:07:45;;;;;;;18.30;4.20;;;;;;;;;;4992710;28;20480;-73
2023/09/20 07:10:11;;;;;;;11.43;4.30;;;;;;;;;;4980223;28;20080;-72
2023/09/20 07:12:38;;;;;;;13.45;4.55;;;;;;;;;;4972525;28;20624;-72
2023/09/20 07:15:09;;;;;;;10.82;4.70;;;;;;;;;;4997152;28;20487;-71
2023/09/20 07:17:35;;;;;;;19.13;5.13;;;;;;;;;;4995540;28;20046;-72
2023/09/20 07:20:08;;;;;;;15.82;5.13;;;;;;;;;;4999539;28;20057;-71
2023/09/20 07:22:38;;;;;;;15.20;5.70;;;;;;;;;;5005046;28;20133;-71
2023/09/20 07:25:05;;;;;;;13.10;5.30;;;;;;;;;;4986195;28;20041;-71
2023/09/20 07:27:32;;;;;;;10.48;4.60;;;;;;;;;;4995672;28;20085;-71
2023/09/20 07:30:04;;;;;;;12.23;5.05;;;;;;;;;;4998692;28;20040;-71
2023/09/20 07:32:30;;;;;;;10.65;4.82;;;;;;;;;;4988516;28;20026;-73
2023/09/20 07:34:59;;;;;;;12.35;5.13;;;;;;;;;;4995825;28;20093;-73
2023/09/20 07:37:26;;;;;;;10.38;4.63;;;;;;;;;;4979967;28;20369;-72
2023/09/20 07:39:52;;;;;;;8.80;4.15;;;;;;;;;;4982561;28;20038;-72
2023/09/20 07:42:20;;;;;;;10.85;4.97;;;;;;;;;;5002035;28;20037;-72
2023/09/20 07:44:46;;;;;;;12.68;4.70;;;;;;;;;;4998412;28;20054;-72
2023/09/20 07:47:13;;;;;;;12.63;4.57;;;;;;;;;;4968224;28;20029;-73
2023/09/20 07:49:39;;;;;;;13.75;5.63;;;;;;;;;;4995941;28;20309;-72
2023/09/20 07:52:09;;;;;;;10.20;4.65;;;;;;;;;;4980610;28;20042;-72
2023/09/20 07:54:35;;;;;;;7.83;4.53;;;;;;;;;;5001798;28;20042;-72
2023/09/20 07:57:01;;;;;;;8.70;4.90;;;;;;;;;;5004696;28;20292;-72
2023/09/20 07:59:30;;;;;;;11.40;4.97;;;;;;;;;;4995529;28;20026;-72
2023/09/20 08:01:56;;;;;;;12.05;4.78;;;;;;;;;;4979293;28;20038;-73
2023/09/20 08:04:23;;;;;;;14.05;5.68;;;;;;;;;;4983181;28;20100;-72
2023/09/20 08:06:49;;;;;;;12.52;5.43;;;;;;;;;;4996617;28;20034;-71
2023/09/20 08:09:15;;;;;;;8.18;4.72;;;;;;;;;;5006001;28;20095;-71
2023/09/20 08:11:41;;;;;;;9.40;5.13;;;;;;;;;;4988458;28;20038;-71
2023/09/20 08:14:08;;;;;;;13.13;5.13;;;;;;;;;;4999822;28;20073;-72
2023/09/20 08:16:35;;;;;;;11.80;5.60;;;;;;;;;;5003506;28;20041;-72
2023/09/20 08:19:36;;;;;;;15.93;5.25;;;;;;;;;;4994878;28;20049;-71
2023/09/20 08:21:54;;;;;;;10.32;5.32;;;;;;;;;;4991783;28;20046;-71
2023/09/20 09:00:27;;;;;;;11.75;5.93;;;;;;;;;;4998281;28;20041;-71
2023/09/20 09:02:58;;;;;;;14.88;6.50;;;;;;;;;;4996329;28;20149;-71
2023/09/20 09:05:27;;;;;;;9.38;4.75;;;;;;;;;;4999664;28;20412;-71
2023/09/20 09:07:54;;;;;;;12.20;5.35;;;;;;;;;;4990646;28;20035;-72
2023/09/20 09:10:20;;;;;;;13.98;5.18;;;;;;;;;;4998837;28;20027;-72
2023/09/20 09:12:47;;;;;;;16.02;5.20;;;;;;;;;;4997637;28;20101;-72
2023/09/20 09:15:15;;;;;;;14.35;4.90;;;;;;;;;;5000429;28;20038;-72
2023/09/20 09:17:43;;;;;;;8.90;5.10;;;;;;;;;;4970471;28;20038;-72
2023/09/20 09:20:10;;;;;;;15.23;5.50;;;;;;;;;;5002398;28;20029;-72
2023/09/20 09:22:37;;;;;;;13.10;5.15;;;;;;;;;;4996964;28;20035;-72
2023/09/20 09:25:09;;;;;;;13.02;5.43;;;;;;;;;;5000427;28;20038;-72
2023/09/20 09:27:36;;;;;;;13.75;6.10;;;;;;;;;;5003204;28;20389;-72
2023/09/20 09:30:02;;;;;;;11.05;5.28;;;;;;;;;;5001301;28;20101;-72
2023/09/20 09:32:35;;;;;;;11.95;5.38;;;;;;;;;;4968610;28;20037;-72
2023/09/20 09:35:05;;;;;;;10.50;5.32;;;;;;;;;;4997625;28;20045;-73
2023/09/20 09:37:35;;;;;;;13.25;5.30;;;;;;;;;;4998367;28;20117;-75
2023/09/20 09:40:09;;;;;;;13.20;5.40;;;;;;;;;;4997349;28;20077;-72
2023/09/20 09:42:36;;;;;;;12.57;4.93;;;;;;;;;;4991850;28;20076;-72
2023/09/20 09:45:02;;;;;;;12.05;5.15;;;;;;;;;;4980408;28;20038;-72
2023/09/20 09:47:30;;;;;;;18.77;5.15;;;;;;;;;;4983718;28;20117;-73
2023/09/20 09:49:59;;;;;;;9.77;4.63;;;;;;;;;;4973812;28;20030;-72
2023/09/20 09:52:27;;;;;;;11.07;4.43;;;;;;;;;;5004617;28;20392;-72
2023/09/20 09:54:54;;;;;;;10.90;5.15;;;;;;;;;;4981514;28;20044;-72
2023/09/20 09:57:20;;;;;;;14.70;5.15;;;;;;;;;;4997197;28;20092;-72
2023/09/20 09:59:47;;;;;;;12.20;4.65;;;;;;;;;;4995727;28;20030;-72
2023/09/20 10:02:18;;;;;;;11.80;4.80;;;;;;;;;;4995471;28;21209;-73
2023/09/20 10:04:44;;;;;;;;;;;;;;;;;;4999142;28;20073;-72
2023/09/20 10:07:16;;;;;;;11.70;4.70;;;;;;;;;;4991891;28;19920;-73
2023/09/20 10:09:44;;;;;;;14.40;4.43;;;;;;;;;;4999540;28;20034;-72
2023/09/20 10:12:11;;;;;;;11.60;4.30;;;;;;;;;;4982334;28;20041;-72
2023/09/20 10:14:38;;;;;;;7.65;3.92;;;;;;;;;;4971117;28;20038;-72
2023/09/20 10:17:08;;;;;;;9.23;5.03;;;;;;;;;;4991320;28;20096;-72
2023/09/20 10:19:36;;;;;;;11.60;4.53;;;;;;;;;;4991331;28;20038;-72
2023/09/20 10:22:09;;;;;;;8.32;4.13;;;;;;;;;;4961946;28;20290;-71
2023/09/20 10:24:50;;;;;;;9.05;4.07;;;;;;;;;;4990328;28;20541;-71
2023/09/20 10:27:20;;;;;;;11.55;4.55;;;;;;;;;;4984200;28;20068;-72
2023/09/20 10:30:02;;;;;;;10.20;4.22;;;;;;;;;;4992656;28;20033;-72
2023/09/20 10:32:32;;;;;;;15.43;4.15;;;;;;;;;;4968256;28;20470;-71
2023/09/20 10:35:20;;;;;;;10.30;3.95;;;;;;;;;;4977400;28;20543;-71
2023/09/20 10:38:04;;;;;;;10.25;4.20;;;;;;;;;;4964897;28;20070;-71
2023/09/20 10:40:45;;;;;;;12.27;4.53;;;;;;;;;;4996623;28;20026;-72
2023/09/20 10:43:13;;;;;;;12.80;3.80;;;;;;;;;;4994272;28;20435;-71
2023/09/20 10:45:39;;;;;;;11.75;4.18;;;;;;;;;;4997507;28;20030;-72
2023/09/20 10:48:15;;;;;;;11.07;4.07;;;;;;;;;;4999833;28;20451;-71
2023/09/20 10:50:50;;;;;;;8.70;4.00;;;;;;;;;;5002653;28;20018;-71
2023/09/20 10:53:19;;;;;;;9.68;4.10;;;;;;;;;;4995252;28;20058;-71
2023/09/20 10:55:45;;;;;;;12.07;4.30;;;;;;;;;;4994156;28;20240;-71
2023/09/20 10:58:15;;;;;;;13.25;4.15;;;;;;;;;;5003739;28;20573;-72
2023/09/20 11:00:41;;;;;;;12.45;4.60;;;;;;;;;;4979061;28;20399;-72
2023/09/20 11:03:08;;;;;;;7.53;3.65;;;;;;;;;;4990577;28;20053;-71
2023/09/20 11:05:38;;;;;;;13.80;4.18;;;;;;;;;;4993197;28;20124;-72
2023/09/20 11:08:10;;;;;;;8.98;3.88;;;;;;;;;;5009867;28;20554;-72
2023/09/20 11:10:39;;;;;;;11.02;3.63;;;;;;;;;;5002198;28;20033;-72
2023/09/20 11:13:08;;;;;;;9.57;3.88;;;;;;;;;;5008016;28;20100;-72
2023/09/20 11:15:40;;;;;;;9.68;3.88;;;;;;;;;;4995166;28;20066;-72
2023/09/20 11:18:10;;;;;;;8.57;4.15;;;;;;;;;;4990966;28;20061;-72
2023/09/20 11:20:37;;;;;;;9.50;3.75;;;;;;;;;;4993980;28;20032;-73
2023/09/20 11:23:04;;;;;;;8.63;4.10;;;;;;;;;;4999904;28;20389;-73
2023/09/20 11:25:30;;;;;;;7.10;3.60;;;;;;;;;;4994977;28;20133;-74
2023/09/20 11:27:56;;;;;;;9.68;3.97;;;;;;;;;;4981787;28;20492;-73
2023/09/20 11:30:27;;;;;;;10.07;3.80;;;;;;;;;;5000725;28;20422;-72
2023/09/20 11:32:54;;;;;;;7.93;3.33;;;;;;;;;;4998350;28;20034;-73
2023/09/20 11:35:39;;;;;;;10.68;3.78;;;;;;;;;;4992348;28;20042;-72
2023/09/20 11:38:07;;;;;;;7.80;3.65;;;;;;;;;;4999084;28;20132;-72
2023/09/20 11:40:41;;;;;;;7.15;3.95;;;;;;;;;;4984936;28;20038;-72
2023/09/20 11:43:09;;;;;;;9.95;3.72;;;;;;;;;;4991421;28;20042;-73
2023/09/20 11:45:35;;;;;;;9.48;3.80;;;;;;;;;;5004481;28;20026;-72
2023/09/20 11:48:08;;;;;;;11.00;4.47;;;;;;;;;;4979000;28;20034;-73
2023/09/20 11:50:34;;;;;;;9.07;3.70;;;;;;;;;;4993918;28;20402;-72
2023/09/20 11:53:02;;;;;;;7.75;3.58;;;;;;;;;;4993430;28;20369;-72
2023/09/20 11:55:30;;;;;;;7.88;3.60;;;;;;;;;;4979296;28;20030;-72
2023/09/20 11:57:59;;;;;;;12.13;4.22;;;;;;;;;;4971184;28;20026;-72
2023/09/20 12:00:25;;;;;;;8.60;3.80;;;;;;;;;;4977994;28;20034;-72
2023/09/20 12:02:53;;;;;;;10.23;3.80;;;;;;;;;;4997868;28;20109;-73
2023/09/20 12:05:21;;;;;;;12.15;3.78;;;;;;;;;;4995849;28;20037;-71
2023/09/20 12:07:58;;;;;;;9.57;3.50;;;;;;;;;;5000010;28;20026;-72
2023/09/20 12:10:27;;;;;;;9.55;4.00;;;;;;;;;;5001142;28;20279;-72
2023/09/20 12:12:54;;;;;;;8.35;3.80;;;;;;;;;;4997759;28;20057;-71
2023/09/20 12:15:23;;;;;;;17.70;4.43;;;;;;;;;;5001829;28;20026;-71
2023/09/20 12:17:55;;;;;;;11.65;3.97;;;;;;;;;;4996383;28;20062;-71
2023/09/20 12:20:24;;;;;;;14.98;4.20;;;;;;;;;;5001888;28;20022;-72
2023/09/20 12:22:50;;;;;;;10.60;4.50;;;;;;;;;;4994711;28;20094;-72
2023/09/20 12:25:17;;;;;;;8.57;3.38;;;;;;;;;;4982048;28;20073;-73
2023/09/20 12:27:43;;;;;;;14.88;4.22;;;;;;;;;;4981327;28;20033;-73
2023/09/20 12:30:12;;;;;;;8.82;3.92;;;;;;;;;;4999122;28;20197;-73
2023/09/20 12:32:41;;;;;;;10.00;4.03;;;;;;;;;;4995431;28;20026;-72
2023/09/20 12:35:09;;;;;;;8.10;3.78;;;;;;;;;;4995451;28;20042;-73
2023/09/20 12:37:35;;;;;;;14.02;4.03;;;;;;;;;;4999052;28;20034;-73
2023/09/20 12:40:06;;;;;;;5.82;3.58;;;;;;;;;;4994361;28;20038;-73
2023/09/20 12:42:34;;;;;;;10.15;4.10;;;;;;;;;;4995660;28;20038;-73
2023/09/20 12:45:07;;;;;;;10.38;3.55;;;;;;;;;;4981076;28;20034;-73
2023/09/20 12:47:40;;;;;;;8.05;4.00;;;;;;;;;;4995018;28;20088;-73
2023/09/20 12:50:12;;;;;;;11.45;4.30;;;;;;;;;;5005211;28;20125;-71
2023/09/20 12:52:39;;;;;;;9.38;3.90;;;;;;;;;;4982742;28;20042;-71
2023/09/20 12:55:05;;;;;;;15.25;4.25;;;;;;;;;;5000164;28;20092;-71
2023/09/20 12:57:31;;;;;;;7.10;3.95;;;;;;;;;;4999344;28;20049;-71
2023/09/20 13:00:00;;;;;;;14.63;4.15;;;;;;;;;;4984122;28;20033;-71
2023/09/20 13:02:27;;;;;;;8.85;3.80;;;;;;;;;;4996775;28;20042;-72
2023/09/20 13:04:55;;;;;;;8.43;4.05;;;;;;;;;;4999523;28;20022;-72
2023/09/20 13:07:22;;;;;;;8.90;3.85;;;;;;;;;;4984652;28;20056;-73
2023/09/20 13:09:48;;;;;;;9.60;4.00;;;;;;;;;;4981701;28;20029;-72
2023/09/20 13:12:15;;;;;;;13.00;3.70;;;;;;;;;;4978482;28;20519;-72
2023/09/20 13:14:42;;;;;;;11.80;4.38;;;;;;;;;;5001941;28;20026;-72
2023/09/20 13:17:09;;;;;;;8.02;4.00;;;;;;;;;;4996486;28;20064;-73
2023/09/20 13:19:35;;;;;;;8.77;3.83;;;;;;;;;;4957090;28;20042;-73
2023/09/20 13:22:01;;;;;;;8.30;3.67;;;;;;;;;;4995395;28;20388;-72
2023/09/20 13:24:29;;;;;;;9.05;3.70;;;;;;;;;;4997509;28;20411;-71
2023/09/20 13:26:55;;;;;;;9.95;3.80;;;;;;;;;;4997687;28;20026;-72
2023/09/20 13:29:23;;;;;;;10.45;4.00;;;;;;;;;;4998486;28;20041;-72
2023/09/20 13:31:50;;;;;;;10.75;4.20;;;;;;;;;;4973240;28;20038;-72
2023/09/20 13:34:20;;;;;;;10.93;4.22;;;;;;;;;;4992150;28;20496;-71
2023/09/20 13:36:47;;;;;;;9.05;4.20;;;;;;;;;;4992214;28;20073;-71
2023/09/20 13:39:16;;;;;;;11.05;4.22;;;;;;;;;;4992067;28;20038;-72
2023/09/20 13:41:43;;;;;;;7.18;3.70;;;;;;;;;;4974052;28;20061;-72
2023/09/20 13:44:09;;;;;;;7.63;4.00;;;;;;;;;;5000702;28;20099;-72
2023/09/20 13:46:38;;;;;;;6.35;3.50;;;;;;;;;;4997429;28;20023;-72
2023/09/20 13:49:09;;;;;;;8.57;3.67;;;;;;;;;;4993915;28;20498;-71
2023/09/20 13:51:38;;;;;;;8.63;3.92;;;;;;;;;;4993102;28;20022;-72
2023/09/20 13:54:06;;;;;;;7.40;3.50;;;;;;;;;;4999127;28;20050;-72
2023/09/20 13:56:38;;;;;;;9.15;3.30;;;;;;;;;;4956283;28;20026;-72
2023/09/20 13:59:04;;;;;;;5.32;3.47;;;;;;;;;;4988292;28;20030;-73
2023/09/20 14:01:32;;;;;;;10.25;3.70;;;;;;;;;;4983161;28;20034;-72
2023/09/20 14:03:58;;;;;;;6.78;3.45;;;;;;;;;;4991157;28;20046;-72
2023/09/20 14:06:24;;;;;;;7.60;3.58;;;;;;;;;;4978927;28;20042;-72
2023/09/20 14:08:51;;;;;;;9.25;3.30;;;;;;;;;;4980039;28;20127;-72
2023/09/20 14:11:18;;;;;;;6.20;3.33;;;;;;;;;;4992389;28;20037;-72
2023/09/20 14:13:44;;;;;;;7.82;3.50;;;;;;;;;;4992646;28;20100;-73
2023/09/20 14:16:10;;;;;;;11.63;3.70;;;;;;;;;;4983616;28;20068;-71
2023/09/20 14:18:36;;;;;;;8.20;3.17;;;;;;;;;;4996369;28;20041;-71
2023/09/20 14:21:03;;;;;;;9.32;3.38;;;;;;;;;;4974767;28;20040;-72
2023/09/20 14:23:30;;;;;;;9.35;3.47;;;;;;;;;;4993788;28;20104;-73
2023/09/20 14:25:56;;;;;;;5.43;2.85;;;;;;;;;;4981702;28;20034;-73
2023/09/20 14:28:22;;;;;;;7.90;3.10;;;;;;;;;;4995341;28;20053;-72
2023/09/20 14:30:48;;;;;;;9.25;2.55;;;;;;;;;;4993330;28;20040;-72
2023/09/20 14:33:15;;;;;;;5.88;2.88;;;;;;;;;;5001886;28;20160;-73
2023/09/20 14:35:41;;;;;;;8.23;2.58;;;;;;;;;;4997326;28;20099;-74
2023/09/20 14:38:08;;;;;;;6.93;2.40;;;;;;;;;;4998290;28;20027;-73
2023/09/20 14:40:34;;;;;;;7.32;2.75;;;;;;;;;;4995742;28;20579;-72
2023/09/20 14:43:00;;;;;;;7.15;2.63;;;;;;;;;;4988665;28;20023;-71
2023/09/20 14:45:29;;;;;;;5.28;2.72;;;;;;;;;;4990130;28;20106;-72
2023/09/20 14:47:56;;;;;;;9.45;3.00;;;;;;;;;;5007323;28;20140;-73
2023/09/20 14:50:22;;;;;;;8.88;2.80;;;;;;;;;;5009602;28;20022;-73
2023/09/20 14:52:49;;;;;;;8.30;2.60;;;;;;;;;;5010213;28;20057;-72
2023/09/20 14:55:18;;;;;;;6.15;2.10;;;;;;;;;;5009028;28;20487;-71
2023/09/20 14:57:46;;;;;;;6.50;2.50;;;;;;;;;;4990878;28;20137;-72
2023/09/20 15:00:18;;;;;;;6.95;2.53;;;;;;;;;;4991909;28;20138;-74
2023/09/20 15:02:45;;;;;;;9.07;3.15;;;;;;;;;;4990394;28;20035;-71
2023/09/20 15:05:13;;;;;;;12.93;3.05;;;;;;;;;;4977198;28;20103;-72
2023/09/20 15:07:40;;;;;;;11.02;3.20;;;;;;;;;;5008147;28;20030;-72
2023/09/20 15:10:10;;;;;;;5.30;2.22;;;;;;;;;;5005670;28;20031;-71
2023/09/20 15:12:40;;;;;;;7.82;2.67;;;;;;;;;;5003938;28;20030;-73
2023/09/20 15:15:06;;;;;;;14.40;2.70;;;;;;;;;;5004540;28;20062;-71